sensor_id;sensor_type;location;lat;lon;timestamp;temperature;humidity
55828;DHT22;41758;51.992;5.890;2023-07-31T00:01:07;19.80;71.10
55828;DHT22;41758;51.992;5.890;2023-07-31T00:03:33;19.80;71.10
55828;DHT22;41758;51.992;5.890;2023-07-31T00:05:59;19.80;71.10
55828;DHT22;41758;51.992;5.890;2023-07-31T00:08:24;19.90;71.10
55828;DHT22;41758;51.992;5.890;2023-07-31T00:10:53;19.90;71.20
55828;DHT22;41758;51.992;5.890;2023-07-31T00:13:19;19.90;71.10
55828;DHT22;41758;51.992;5.890;2023-07-31T00:15:44;19.90;71.20
55828;DHT22;41758;51.992;5.890;2023-07-31T00:18:10;20.00;71.20
55828;DHT22;41758;51.992;5.890;2023-07-31T00:20:36;20.00;71.30
55828;DHT22;41758;51.992;5.890;2023-07-31T00:23:02;20.00;71.20
55828;DHT22;41758;51.992;5.890;2023-07-31T00:25:27;20.00;71.20
55828;DHT22;41758;51.992;5.890;2023-07-31T00:27:53;20.00;71.20
55828;DHT22;41758;51.992;5.890;2023-07-31T00:30:19;20.10;71.30
55828;DHT22;41758;51.992;5.890;2023-07-31T00:32:44;20.00;71.30
55828;DHT22;41758;51.992;5.890;2023-07-31T00:35:10;20.10;71.30
55828;DHT22;41758;51.992;5.890;2023-07-31T00:37:35;20.10;71.30
55828;DHT22;41758;51.992;5.890;2023-07-31T00:40:01;20.10;71.40
55828;DHT22;41758;51.992;5.890;2023-07-31T00:42:29;20.10;71.40
55828;DHT22;41758;51.992;5.890;2023-07-31T00:44:55;20.10;71.40
55828;DHT22;41758;51.992;5.890;2023-07-31T00:47:20;20.10;71.40
55828;DHT22;41758;51.992;5.890;2023-07-31T00:49:46;20.10;71.60
55828;DHT22;41758;51.992;5.890;2023-07-31T00:52:13;20.10;71.50
55828;DHT22;41758;51.992;5.890;2023-07-31T00:54:39;20.20;71.70
55828;DHT22;41758;51.992;5.890;2023-07-31T00:57:05;20.20;71.70
55828;DHT22;41758;51.992;5.890;2023-07-31T00:59:33;20.20;71.70
55828;DHT22;41758;51.992;5.890;2023-07-31T01:01:59;20.30;71.90
55828;DHT22;41758;51.992;5.890;2023-07-31T01:04:25;20.30;72.00
55828;DHT22;41758;51.992;5.890;2023-07-31T01:06:53;20.30;72.10
55828;DHT22;41758;51.992;5.890;2023-07-31T01:11:57;20.30;72.30
55828;DHT22;41758;51.992;5.890;2023-07-31T01:14:23;20.40;72.40
55828;DHT22;41758;51.992;5.890;2023-07-31T01:16:49;20.40;72.50
55828;DHT22;41758;51.992;5.890;2023-07-31T01:19:15;20.40;72.50
55828;DHT22;41758;51.992;5.890;2023-07-31T01:27:16;20.60;72.60
55828;DHT22;41758;51.992;5.890;2023-07-31T01:32:19;20.70;72.70
55828;DHT22;41758;51.992;5.890;2023-07-31T01:34:46;20.80;72.80
55828;DHT22;41758;51.992;5.890;2023-07-31T01:37:12;20.80;72.80
55828;DHT22;41758;51.992;5.890;2023-07-31T01:39:37;20.80;72.80
55828;DHT22;41758;51.992;5.890;2023-07-31T01:42:03;20.80;72.70
55828;DHT22;41758;51.992;5.890;2023-07-31T01:44:29;20.70;72.80
55828;DHT22;41758;51.992;5.890;2023-07-31T01:46:55;20.80;72.80
55828;DHT22;41758;51.992;5.890;2023-07-31T01:49:20;20.80;72.80
55828;DHT22;41758;51.992;5.890;2023-07-31T01:51:46;20.80;72.90
55828;DHT22;41758;51.992;5.890;2023-07-31T01:54:12;20.80;72.80
55828;DHT22;41758;51.992;5.890;2023-07-31T01:56:37;20.80;72.80
55828;DHT22;41758;51.992;5.890;2023-07-31T01:59:03;20.80;72.90
55828;DHT22;41758;51.992;5.890;2023-07-31T02:01:29;20.80;72.80
55828;DHT22;41758;51.992;5.890;2023-07-31T02:03:55;20.90;72.70
55828;DHT22;41758;51.992;5.890;2023-07-31T02:06:22;20.90;72.70
55828;DHT22;41758;51.992;5.890;2023-07-31T02:08:48;20.90;72.80
55828;DHT22;41758;51.992;5.890;2023-07-31T02:11:14;20.80;72.60
55828;DHT22;41758;51.992;5.890;2023-07-31T02:13:40;20.80;72.70
55828;DHT22;41758;51.992;5.890;2023-07-31T02:16:06;20.80;72.70
55828;DHT22;41758;51.992;5.890;2023-07-31T02:18:32;20.80;72.60
55828;DHT22;41758;51.992;5.890;2023-07-31T02:20:58;20.80;72.70
55828;DHT22;41758;51.992;5.890;2023-07-31T02:23:25;20.80;72.70
55828;DHT22;41758;51.992;5.890;2023-07-31T02:25:50;20.70;72.80
55828;DHT22;41758;51.992;5.890;2023-07-31T02:28:16;20.70;72.80
55828;DHT22;41758;51.992;5.890;2023-07-31T02:30:44;20.80;72.90
55828;DHT22;41758;51.992;5.890;2023-07-31T02:33:11;20.80;72.90
55828;DHT22;41758;51.992;5.890;2023-07-31T02:35:37;20.70;72.80
55828;DHT22;41758;51.992;5.890;2023-07-31T02:38:03;20.80;72.80
55828;DHT22;41758;51.992;5.890;2023-07-31T02:40:28;20.70;72.70
55828;DHT22;41758;51.992;5.890;2023-07-31T02:42:54;20.60;72.60
55828;DHT22;41758;51.992;5.890;2023-07-31T02:45:20;20.70;72.80
55828;DHT22;41758;51.992;5.890;2023-07-31T02:47:46;20.70;72.90
55828;DHT22;41758;51.992;5.890;2023-07-31T02:50:11;20.70;72.90
55828;DHT22;41758;51.992;5.890;2023-07-31T02:52:37;20.80;73.00
55828;DHT22;41758;51.992;5.890;2023-07-31T02:55:03;20.80;72.90
55828;DHT22;41758;51.992;5.890;2023-07-31T02:57:29;20.70;72.90
55828;DHT22;41758;51.992;5.890;2023-07-31T02:59:55;20.70;72.90
55828;DHT22;41758;51.992;5.890;2023-07-31T03:02:20;20.70;72.90
55828;DHT22;41758;51.992;5.890;2023-07-31T03:04:46;20.70;73.00
55828;DHT22;41758;51.992;5.890;2023-07-31T03:07:11;20.80;73.10
55828;DHT22;41758;51.992;5.890;2023-07-31T03:09:37;20.80;73.00
55828;DHT22;41758;51.992;5.890;2023-07-31T03:12:03;20.70;73.00
55828;DHT22;41758;51.992;5.890;2023-07-31T03:14:29;20.70;72.90
55828;DHT22;41758;51.992;5.890;2023-07-31T03:16:55;20.80;73.00
55828;DHT22;41758;51.992;5.890;2023-07-31T03:19:21;20.80;73.00
55828;DHT22;41758;51.992;5.890;2023-07-31T03:21:46;20.70;73.00
55828;DHT22;41758;51.992;5.890;2023-07-31T03:24:12;20.70;72.90
55828;DHT22;41758;51.992;5.890;2023-07-31T03:26:38;20.70;72.90
55828;DHT22;41758;51.992;5.890;2023-07-31T03:29:07;20.70;72.70
55828;DHT22;41758;51.992;5.890;2023-07-31T03:31:33;20.70;72.90
55828;DHT22;41758;51.992;5.890;2023-07-31T03:33:58;20.60;73.00
55828;DHT22;41758;51.992;5.890;2023-07-31T03:36:24;20.60;72.90
55828;DHT22;41758;51.992;5.890;2023-07-31T03:38:52;20.60;72.80
55828;DHT22;41758;51.992;5.890;2023-07-31T03:41:18;20.60;72.90
55828;DHT22;41758;51.992;5.890;2023-07-31T03:43:47;20.60;73.00
55828;DHT22;41758;51.992;5.890;2023-07-31T03:46:13;20.60;73.00
55828;DHT22;41758;51.992;5.890;2023-07-31T03:48:39;20.60;72.90
55828;DHT22;41758;51.992;5.890;2023-07-31T03:51:05;20.50;72.80
55828;DHT22;41758;51.992;5.890;2023-07-31T03:53:31;20.50;72.80
55828;DHT22;41758;51.992;5.890;2023-07-31T03:55:56;20.50;72.90
55828;DHT22;41758;51.992;5.890;2023-07-31T03:58:22;20.50;73.10
55828;DHT22;41758;51.992;5.890;2023-07-31T04:00:48;20.40;73.00
55828;DHT22;41758;51.992;5.890;2023-07-31T04:03:14;20.50;73.10
55828;DHT22;41758;51.992;5.890;2023-07-31T04:05:39;20.50;73.00
55828;DHT22;41758;51.992;5.890;2023-07-31T04:08:05;20.40;72.90
55828;DHT22;41758;51.992;5.890;2023-07-31T04:10:31;20.40;72.90
55828;DHT22;41758;51.992;5.890;2023-07-31T04:12:59;20.40;73.00
55828;DHT22;41758;51.992;5.890;2023-07-31T04:15:26;20.40;72.90
55828;DHT22;41758;51.992;5.890;2023-07-31T04:17:52;20.40;73.10
55828;DHT22;41758;51.992;5.890;2023-07-31T04:20:17;20.40;73.10
55828;DHT22;41758;51.992;5.890;2023-07-31T04:22:43;20.40;72.90
55828;DHT22;41758;51.992;5.890;2023-07-31T04:25:09;20.40;73.10
55828;DHT22;41758;51.992;5.890;2023-07-31T04:27:34;20.40;73.00
55828;DHT22;41758;51.992;5.890;2023-07-31T04:30:00;20.40;73.10
55828;DHT22;41758;51.992;5.890;2023-07-31T04:32:26;20.50;73.10
55828;DHT22;41758;51.992;5.890;2023-07-31T04:34:52;20.40;72.80
55828;DHT22;41758;51.992;5.890;2023-07-31T04:37:17;20.40;73.00
55828;DHT22;41758;51.992;5.890;2023-07-31T04:39:43;20.40;73.00
55828;DHT22;41758;51.992;5.890;2023-07-31T04:42:09;20.40;72.90
55828;DHT22;41758;51.992;5.890;2023-07-31T04:44:35;20.40;72.90
55828;DHT22;41758;51.992;5.890;2023-07-31T04:47:01;20.40;73.10
55828;DHT22;41758;51.992;5.890;2023-07-31T04:49:27;20.40;73.10
55828;DHT22;41758;51.992;5.890;2023-07-31T04:51:53;20.40;73.10
55828;DHT22;41758;51.992;5.890;2023-07-31T04:54:19;20.40;73.00
55828;DHT22;41758;51.992;5.890;2023-07-31T04:56:44;20.40;73.10
55828;DHT22;41758;51.992;5.890;2023-07-31T04:59:10;20.40;73.10
55828;DHT22;41758;51.992;5.890;2023-07-31T05:01:36;20.50;73.10
55828;DHT22;41758;51.992;5.890;2023-07-31T05:04:01;20.50;73.10
55828;DHT22;41758;51.992;5.890;2023-07-31T05:06:27;20.50;73.10
55828;DHT22;41758;51.992;5.890;2023-07-31T05:08:53;20.50;73.00
55828;DHT22;41758;51.992;5.890;2023-07-31T05:11:19;20.50;73.00
55828;DHT22;41758;51.992;5.890;2023-07-31T05:13:44;20.50;73.10
55828;DHT22;41758;51.992;5.890;2023-07-31T05:16:10;20.50;73.10
55828;DHT22;41758;51.992;5.890;2023-07-31T05:18:36;20.60;73.00
55828;DHT22;41758;51.992;5.890;2023-07-31T05:21:02;20.60;72.80
55828;DHT22;41758;51.992;5.890;2023-07-31T05:23:27;20.50;72.70
55828;DHT22;41758;51.992;5.890;2023-07-31T05:25:53;20.50;72.90
55828;DHT22;41758;51.992;5.890;2023-07-31T05:28:20;20.50;73.00
55828;DHT22;41758;51.992;5.890;2023-07-31T05:30:46;20.50;73.10
55828;DHT22;41758;51.992;5.890;2023-07-31T05:33:12;20.50;73.20
55828;DHT22;41758;51.992;5.890;2023-07-31T05:35:37;20.60;73.20
55828;DHT22;41758;51.992;5.890;2023-07-31T05:38:04;20.60;73.00
55828;DHT22;41758;51.992;5.890;2023-07-31T05:40:32;20.50;73.10
55828;DHT22;41758;51.992;5.890;2023-07-31T05:42:58;20.50;73.10
55828;DHT22;41758;51.992;5.890;2023-07-31T05:45:25;20.60;73.10
55828;DHT22;41758;51.992;5.890;2023-07-31T05:47:51;20.50;73.10
55828;DHT22;41758;51.992;5.890;2023-07-31T05:50:16;20.50;73.00
55828;DHT22;41758;51.992;5.890;2023-07-31T05:52:42;20.50;73.10
55828;DHT22;41758;51.992;5.890;2023-07-31T05:55:08;20.50;73.00
55828;DHT22;41758;51.992;5.890;2023-07-31T05:57:34;20.40;72.90
55828;DHT22;41758;51.992;5.890;2023-07-31T05:59:59;20.40;73.00
55828;DHT22;41758;51.992;5.890;2023-07-31T06:02:25;20.40;73.20
55828;DHT22;41758;51.992;5.890;2023-07-31T06:04:51;20.40;73.20
55828;DHT22;41758;51.992;5.890;2023-07-31T06:07:16;20.40;73.20
55828;DHT22;41758;51.992;5.890;2023-07-31T06:09:42;20.40;73.40
55828;DHT22;41758;51.992;5.890;2023-07-31T06:12:08;20.40;73.40
55828;DHT22;41758;51.992;5.890;2023-07-31T06:14:34;20.40;73.40
55828;DHT22;41758;51.992;5.890;2023-07-31T06:17:00;20.40;73.50
55828;DHT22;41758;51.992;5.890;2023-07-31T06:19:25;20.40;73.70
55828;DHT22;41758;51.992;5.890;2023-07-31T06:21:51;20.40;73.60
55828;DHT22;41758;51.992;5.890;2023-07-31T06:24:17;20.40;73.70
55828;DHT22;41758;51.992;5.890;2023-07-31T06:26:45;20.50;73.80
55828;DHT22;41758;51.992;5.890;2023-07-31T06:29:11;20.60;73.90
55828;DHT22;41758;51.992;5.890;2023-07-31T06:31:37;20.60;73.80
55828;DHT22;41758;51.992;5.890;2023-07-31T06:34:02;20.60;73.80
55828;DHT22;41758;51.992;5.890;2023-07-31T06:36:28;20.60;73.80
55828;DHT22;41758;51.992;5.890;2023-07-31T06:38:54;20.70;73.90
55828;DHT22;41758;51.992;5.890;2023-07-31T06:41:19;20.70;74.00
55828;DHT22;41758;51.992;5.890;2023-07-31T06:43:46;20.80;73.90
55828;DHT22;41758;51.992;5.890;2023-07-31T06:46:11;20.80;73.90
55828;DHT22;41758;51.992;5.890;2023-07-31T06:48:37;20.80;74.00
55828;DHT22;41758;51.992;5.890;2023-07-31T06:51:03;20.80;74.00
55828;DHT22;41758;51.992;5.890;2023-07-31T06:53:29;20.80;74.00
55828;DHT22;41758;51.992;5.890;2023-07-31T06:55:55;20.90;74.00
55828;DHT22;41758;51.992;5.890;2023-07-31T06:58:20;20.90;73.90
55828;DHT22;41758;51.992;5.890;2023-07-31T07:00:46;20.90;74.00
55828;DHT22;41758;51.992;5.890;2023-07-31T07:03:12;20.90;73.90
55828;DHT22;41758;51.992;5.890;2023-07-31T07:05:40;20.90;73.80
55828;DHT22;41758;51.992;5.890;2023-07-31T07:08:06;20.90;73.80
55828;DHT22;41758;51.992;5.890;2023-07-31T07:10:31;20.90;74.00
55828;DHT22;41758;51.992;5.890;2023-07-31T07:12:57;20.90;73.90
55828;DHT22;41758;51.992;5.890;2023-07-31T07:15:23;21.00;74.00
55828;DHT22;41758;51.992;5.890;2023-07-31T07:17:48;21.00;73.90
55828;DHT22;41758;51.992;5.890;2023-07-31T07:20:14;20.90;74.00
55828;DHT22;41758;51.992;5.890;2023-07-31T07:22:40;21.00;74.00
55828;DHT22;41758;51.992;5.890;2023-07-31T07:25:08;21.00;74.10
55828;DHT22;41758;51.992;5.890;2023-07-31T07:27:34;21.10;74.20
55828;DHT22;41758;51.992;5.890;2023-07-31T07:30:00;21.10;74.30
55828;DHT22;41758;51.992;5.890;2023-07-31T07:32:26;21.20;74.30
55828;DHT22;41758;51.992;5.890;2023-07-31T07:34:51;21.20;74.10
55828;DHT22;41758;51.992;5.890;2023-07-31T07:37:17;21.20;74.10
55828;DHT22;41758;51.992;5.890;2023-07-31T07:39:43;21.20;74.10
55828;DHT22;41758;51.992;5.890;2023-07-31T07:42:09;21.20;74.10
55828;DHT22;41758;51.992;5.890;2023-07-31T07:44:35;21.30;74.10
55828;DHT22;41758;51.992;5.890;2023-07-31T07:47:00;21.30;74.00
55828;DHT22;41758;51.992;5.890;2023-07-31T07:49:26;21.30;74.00
55828;DHT22;41758;51.992;5.890;2023-07-31T07:51:51;21.30;74.00
55828;DHT22;41758;51.992;5.890;2023-07-31T07:54:17;21.30;73.90
55828;DHT22;41758;51.992;5.890;2023-07-31T07:56:43;21.30;73.80
55828;DHT22;41758;51.992;5.890;2023-07-31T07:59:09;21.30;74.00
55828;DHT22;41758;51.992;5.890;2023-07-31T08:01:34;21.30;73.90
55828;DHT22;41758;51.992;5.890;2023-07-31T08:04:00;21.30;74.00
55828;DHT22;41758;51.992;5.890;2023-07-31T08:06:26;21.30;74.00
55828;DHT22;41758;51.992;5.890;2023-07-31T08:08:51;21.30;74.00
55828;DHT22;41758;51.992;5.890;2023-07-31T08:11:17;21.30;73.90
55828;DHT22;41758;51.992;5.890;2023-07-31T08:13:43;21.30;74.00
55828;DHT22;41758;51.992;5.890;2023-07-31T08:16:09;21.30;74.20
55828;DHT22;41758;51.992;5.890;2023-07-31T08:18:35;21.40;74.20
55828;DHT22;41758;51.992;5.890;2023-07-31T08:21:04;21.30;74.10
55828;DHT22;41758;51.992;5.890;2023-07-31T08:23:30;21.40;74.00
55828;DHT22;41758;51.992;5.890;2023-07-31T08:25:56;21.40;74.00
55828;DHT22;41758;51.992;5.890;2023-07-31T08:28:21;21.40;74.00
55828;DHT22;41758;51.992;5.890;2023-07-31T08:30:47;21.40;74.20
55828;DHT22;41758;51.992;5.890;2023-07-31T08:33:13;21.40;74.20
55828;DHT22;41758;51.992;5.890;2023-07-31T08:35:39;21.40;74.00
55828;DHT22;41758;51.992;5.890;2023-07-31T08:38:04;21.40;74.00
55828;DHT22;41758;51.992;5.890;2023-07-31T08:40:30;21.40;74.20
55828;DHT22;41758;51.992;5.890;2023-07-31T08:42:56;21.50;74.30
55828;DHT22;41758;51.992;5.890;2023-07-31T08:45:22;21.50;74.20
55828;DHT22;41758;51.992;5.890;2023-07-31T08:47:50;21.50;74.30
55828;DHT22;41758;51.992;5.890;2023-07-31T08:50:18;21.50;74.20
55828;DHT22;41758;51.992;5.890;2023-07-31T08:52:48;21.50;74.30
55828;DHT22;41758;51.992;5.890;2023-07-31T08:55:14;21.60;74.50
55828;DHT22;41758;51.992;5.890;2023-07-31T08:57:41;21.60;74.50
55828;DHT22;41758;51.992;5.890;2023-07-31T09:00:09;21.60;74.40
55828;DHT22;41758;51.992;5.890;2023-07-31T09:02:45;21.70;74.50
55828;DHT22;41758;51.992;5.890;2023-07-31T09:05:12;21.80;74.40
55828;DHT22;41758;51.992;5.890;2023-07-31T09:07:38;21.80;74.10
55828;DHT22;41758;51.992;5.890;2023-07-31T09:10:05;21.70;74.10
55828;DHT22;41758;51.992;5.890;2023-07-31T09:12:31;21.70;74.30
55828;DHT22;41758;51.992;5.890;2023-07-31T09:14:58;21.70;74.30
55828;DHT22;41758;51.992;5.890;2023-07-31T09:17:31;21.70;74.10
55828;DHT22;41758;51.992;5.890;2023-07-31T09:19:57;21.70;74.00
55828;DHT22;41758;51.992;5.890;2023-07-31T09:22:34;21.60;74.00
55828;DHT22;41758;51.992;5.890;2023-07-31T09:25:15;21.60;74.10
55828;DHT22;41758;51.992;5.890;2023-07-31T09:27:56;21.60;74.10
55828;DHT22;41758;51.992;5.890;2023-07-31T09:30:22;21.60;74.30
55828;DHT22;41758;51.992;5.890;2023-07-31T09:32:49;21.60;74.40
55828;DHT22;41758;51.992;5.890;2023-07-31T09:35:19;21.70;74.30
55828;DHT22;41758;51.992;5.890;2023-07-31T09:37:53;21.60;74.30
55828;DHT22;41758;51.992;5.890;2023-07-31T09:40:46;21.70;74.30
55828;DHT22;41758;51.992;5.890;2023-07-31T09:43:13;21.70;74.30
55828;DHT22;41758;51.992;5.890;2023-07-31T09:45:43;21.70;74.40
55828;DHT22;41758;51.992;5.890;2023-07-31T09:48:10;21.70;74.40
55828;DHT22;41758;51.992;5.890;2023-07-31T09:50:38;21.70;74.30
55828;DHT22;41758;51.992;5.890;2023-07-31T09:53:05;21.70;74.20
55828;DHT22;41758;51.992;5.890;2023-07-31T09:55:32;21.70;74.40
55828;DHT22;41758;51.992;5.890;2023-07-31T09:57:58;21.70;74.40
55828;DHT22;41758;51.992;5.890;2023-07-31T10:00:24;21.70;74.40
55828;DHT22;41758;51.992;5.890;2023-07-31T10:02:53;21.80;74.40
55828;DHT22;41758;51.992;5.890;2023-07-31T10:05:19;21.70;74.40
55828;DHT22;41758;51.992;5.890;2023-07-31T10:07:51;21.70;74.40
55828;DHT22;41758;51.992;5.890;2023-07-31T10:10:21;21.80;74.40
55828;DHT22;41758;51.992;5.890;2023-07-31T10:12:48;21.80;74.40
55828;DHT22;41758;51.992;5.890;2023-07-31T10:15:15;21.80;74.20
55828;DHT22;41758;51.992;5.890;2023-07-31T10:17:42;21.80;74.40
55828;DHT22;41758;51.992;5.890;2023-07-31T10:20:08;21.80;74.20
55828;DHT22;41758;51.992;5.890;2023-07-31T10:22:35;21.80;74.30
55828;DHT22;41758;51.992;5.890;2023-07-31T10:25:01;21.80;74.50
55828;DHT22;41758;51.992;5.890;2023-07-31T10:27:27;21.80;74.50
55828;DHT22;41758;51.992;5.890;2023-07-31T10:29:55;21.80;74.70
55828;DHT22;41758;51.992;5.890;2023-07-31T10:32:22;21.90;74.50
55828;DHT22;41758;51.992;5.890;2023-07-31T10:34:51;21.90;74.50
55828;DHT22;41758;51.992;5.890;2023-07-31T10:42:35;22.10;74.70
55828;DHT22;41758;51.992;5.890;2023-07-31T10:45:11;22.10;74.70
55828;DHT22;41758;51.992;5.890;2023-07-31T10:47:42;22.10;74.40
55828;DHT22;41758;51.992;5.890;2023-07-31T10:50:20;22.10;74.40
55828;DHT22;41758;51.992;5.890;2023-07-31T10:52:51;22.20;74.20
55828;DHT22;41758;51.992;5.890;2023-07-31T10:57:49;22.10;74.50
55828;DHT22;41758;51.992;5.890;2023-07-31T11:00:20;22.20;74.60
55828;DHT22;41758;51.992;5.890;2023-07-31T11:03:00;22.30;74.40
55828;DHT22;41758;51.992;5.890;2023-07-31T11:08:16;22.30;74.40
55828;DHT22;41758;51.992;5.890;2023-07-31T11:10:46;22.30;74.20
55828;DHT22;41758;51.992;5.890;2023-07-31T11:13:13;22.30;74.40
55828;DHT22;41758;51.992;5.890;2023-07-31T11:15:38;22.30;74.40
55828;DHT22;41758;51.992;5.890;2023-07-31T11:18:04;22.30;74.40
55828;DHT22;41758;51.992;5.890;2023-07-31T11:20:35;22.30;74.40
55828;DHT22;41758;51.992;5.890;2023-07-31T11:23:02;22.30;74.60
55828;DHT22;41758;51.992;5.890;2023-07-31T11:25:30;22.30;74.70
55828;DHT22;41758;51.992;5.890;2023-07-31T11:27:57;22.30;74.60
55828;DHT22;41758;51.992;5.890;2023-07-31T11:30:28;22.30;74.50
55828;DHT22;41758;51.992;5.890;2023-07-31T11:32:55;22.30;74.60
55828;DHT22;41758;51.992;5.890;2023-07-31T11:35:21;22.40;74.50
55828;DHT22;41758;51.992;5.890;2023-07-31T11:37:47;22.30;74.40
55828;DHT22;41758;51.992;5.890;2023-07-31T11:40:14;22.40;74.60
55828;DHT22;41758;51.992;5.890;2023-07-31T11:42:41;22.40;74.70
55828;DHT22;41758;51.992;5.890;2023-07-31T11:45:08;22.40;74.50
55828;DHT22;41758;51.992;5.890;2023-07-31T11:47:36;22.50;74.50
55828;DHT22;41758;51.992;5.890;2023-07-31T11:50:07;22.40;74.50
55828;DHT22;41758;51.992;5.890;2023-07-31T11:52:39;22.50;74.50
55828;DHT22;41758;51.992;5.890;2023-07-31T11:55:07;22.50;74.50
55828;DHT22;41758;51.992;5.890;2023-07-31T11:57:36;22.50;74.30
55828;DHT22;41758;51.992;5.890;2023-07-31T12:00:03;22.50;74.30
55828;DHT22;41758;51.992;5.890;2023-07-31T12:02:30;22.40;74.30
55828;DHT22;41758;51.992;5.890;2023-07-31T12:04:56;22.40;74.50
55828;DHT22;41758;51.992;5.890;2023-07-31T12:07:21;22.50;74.60
55828;DHT22;41758;51.992;5.890;2023-07-31T12:09:55;22.50;74.70
55828;DHT22;41758;51.992;5.890;2023-07-31T12:12:22;22.60;74.80
55828;DHT22;41758;51.992;5.890;2023-07-31T12:14:48;22.60;74.70
55828;DHT22;41758;51.992;5.890;2023-07-31T12:17:16;22.60;74.70
55828;DHT22;41758;51.992;5.890;2023-07-31T12:19:46;22.60;74.70
55828;DHT22;41758;51.992;5.890;2023-07-31T12:22:14;22.60;74.60
55828;DHT22;41758;51.992;5.890;2023-07-31T12:24:42;22.70;74.40
55828;DHT22;41758;51.992;5.890;2023-07-31T12:27:14;22.70;74.40
55828;DHT22;41758;51.992;5.890;2023-07-31T12:29:41;22.60;74.30
55828;DHT22;41758;51.992;5.890;2023-07-31T12:32:24;22.70;74.20
55828;DHT22;41758;51.992;5.890;2023-07-31T12:34:54;22.60;74.10
55828;DHT22;41758;51.992;5.890;2023-07-31T12:37:23;22.60;74.10
55828;DHT22;41758;51.992;5.890;2023-07-31T12:39:49;22.60;74.30
55828;DHT22;41758;51.992;5.890;2023-07-31T12:42:17;22.50;74.30
55828;DHT22;41758;51.992;5.890;2023-07-31T12:44:43;22.50;74.40
55828;DHT22;41758;51.992;5.890;2023-07-31T12:47:08;22.50;74.30
55828;DHT22;41758;51.992;5.890;2023-07-31T12:49:34;22.50;74.40
55828;DHT22;41758;51.992;5.890;2023-07-31T12:52:00;22.50;74.60
55828;DHT22;41758;51.992;5.890;2023-07-31T12:54:25;22.60;74.50
55828;DHT22;41758;51.992;5.890;2023-07-31T12:56:51;22.60;74.60
55828;DHT22;41758;51.992;5.890;2023-07-31T12:59:17;22.60;74.40
55828;DHT22;41758;51.992;5.890;2023-07-31T13:01:42;22.60;74.40
55828;DHT22;41758;51.992;5.890;2023-07-31T13:04:08;22.60;74.40
55828;DHT22;41758;51.992;5.890;2023-07-31T13:06:34;22.60;74.50
55828;DHT22;41758;51.992;5.890;2023-07-31T13:08:59;22.60;74.50
55828;DHT22;41758;51.992;5.890;2023-07-31T13:11:25;22.60;74.50
55828;DHT22;41758;51.992;5.890;2023-07-31T13:13:51;22.60;74.60
55828;DHT22;41758;51.992;5.890;2023-07-31T13:16:17;22.70;74.80
55828;DHT22;41758;51.992;5.890;2023-07-31T13:18:42;22.70;74.70
55828;DHT22;41758;51.992;5.890;2023-07-31T13:21:08;22.70;74.60
55828;DHT22;41758;51.992;5.890;2023-07-31T13:23:33;22.70;74.50
55828;DHT22;41758;51.992;5.890;2023-07-31T13:25:59;22.70;74.50
55828;DHT22;41758;51.992;5.890;2023-07-31T13:28:25;22.70;74.70
55828;DHT22;41758;51.992;5.890;2023-07-31T13:30:50;22.70;74.80
55828;DHT22;41758;51.992;5.890;2023-07-31T13:33:16;22.70;74.70
55828;DHT22;41758;51.992;5.890;2023-07-31T13:35:42;22.80;74.80
55828;DHT22;41758;51.992;5.890;2023-07-31T13:38:07;22.80;74.60
55828;DHT22;41758;51.992;5.890;2023-07-31T13:40:33;22.80;74.70
55828;DHT22;41758;51.992;5.890;2023-07-31T13:42:59;22.80;74.70
55828;DHT22;41758;51.992;5.890;2023-07-31T13:45:25;22.80;74.60
55828;DHT22;41758;51.992;5.890;2023-07-31T13:47:50;22.90;74.70
55828;DHT22;41758;51.992;5.890;2023-07-31T13:50:17;22.80;74.50
55828;DHT22;41758;51.992;5.890;2023-07-31T13:52:44;22.90;74.50
55828;DHT22;41758;51.992;5.890;2023-07-31T13:55:10;22.90;74.60
55828;DHT22;41758;51.992;5.890;2023-07-31T13:57:36;22.90;74.40
55828;DHT22;41758;51.992;5.890;2023-07-31T14:00:01;22.80;74.20
55828;DHT22;41758;51.992;5.890;2023-07-31T14:02:30;22.80;74.30
55828;DHT22;41758;51.992;5.890;2023-07-31T14:04:56;22.90;74.40
55828;DHT22;41758;51.992;5.890;2023-07-31T14:07:21;22.90;74.40
55828;DHT22;41758;51.992;5.890;2023-07-31T14:09:47;22.90;74.40
55828;DHT22;41758;51.992;5.890;2023-07-31T14:12:13;22.80;74.30
55828;DHT22;41758;51.992;5.890;2023-07-31T14:14:39;22.90;74.30
55828;DHT22;41758;51.992;5.890;2023-07-31T14:17:05;22.80;74.20
55828;DHT22;41758;51.992;5.890;2023-07-31T14:19:30;22.80;74.10
55828;DHT22;41758;51.992;5.890;2023-07-31T14:21:58;22.80;74.20
55828;DHT22;41758;51.992;5.890;2023-07-31T14:24:24;22.80;74.20
55828;DHT22;41758;51.992;5.890;2023-07-31T14:26:50;22.80;74.30
55828;DHT22;41758;51.992;5.890;2023-07-31T14:29:15;22.80;74.40
55828;DHT22;41758;51.992;5.890;2023-07-31T14:31:41;22.80;74.40
55828;DHT22;41758;51.992;5.890;2023-07-31T14:34:07;22.80;74.50
55828;DHT22;41758;51.992;5.890;2023-07-31T14:36:33;22.80;74.50
55828;DHT22;41758;51.992;5.890;2023-07-31T14:38:58;22.80;74.40
55828;DHT22;41758;51.992;5.890;2023-07-31T14:41:24;22.80;74.40
55828;DHT22;41758;51.992;5.890;2023-07-31T14:43:50;22.80;74.40
55828;DHT22;41758;51.992;5.890;2023-07-31T14:46:15;22.80;74.40
55828;DHT22;41758;51.992;5.890;2023-07-31T14:48:41;22.70;74.50
55828;DHT22;41758;51.992;5.890;2023-07-31T14:51:07;22.70;74.50
55828;DHT22;41758;51.992;5.890;2023-07-31T14:53:33;22.80;74.50
55828;DHT22;41758;51.992;5.890;2023-07-31T14:55:58;22.80;74.20
55828;DHT22;41758;51.992;5.890;2023-07-31T14:58:24;22.70;74.00
55828;DHT22;41758;51.992;5.890;2023-07-31T15:00:50;22.60;74.00
55828;DHT22;41758;51.992;5.890;2023-07-31T15:03:16;22.60;74.20
55828;DHT22;41758;51.992;5.890;2023-07-31T15:05:41;22.60;74.30
55828;DHT22;41758;51.992;5.890;2023-07-31T15:08:07;22.60;74.30
55828;DHT22;41758;51.992;5.890;2023-07-31T15:10:33;22.60;74.30
55828;DHT22;41758;51.992;5.890;2023-07-31T15:12:58;22.60;74.30
55828;DHT22;41758;51.992;5.890;2023-07-31T15:15:24;22.60;74.40
55828;DHT22;41758;51.992;5.890;2023-07-31T15:17:50;22.60;74.50
55828;DHT22;41758;51.992;5.890;2023-07-31T15:20:16;22.60;74.50
55828;DHT22;41758;51.992;5.890;2023-07-31T15:22:42;22.60;74.60
55828;DHT22;41758;51.992;5.890;2023-07-31T15:25:08;22.70;74.60
55828;DHT22;41758;51.992;5.890;2023-07-31T15:27:34;22.70;74.60
55828;DHT22;41758;51.992;5.890;2023-07-31T15:30:00;22.70;74.60
55828;DHT22;41758;51.992;5.890;2023-07-31T15:32:25;22.70;74.50
55828;DHT22;41758;51.992;5.890;2023-07-31T15:34:52;22.70;74.30
55828;DHT22;41758;51.992;5.890;2023-07-31T15:37:17;22.70;74.30
55828;DHT22;41758;51.992;5.890;2023-07-31T15:39:43;22.70;74.40
55828;DHT22;41758;51.992;5.890;2023-07-31T15:42:09;22.70;74.30
55828;DHT22;41758;51.992;5.890;2023-07-31T15:44:35;22.60;74.30
55828;DHT22;41758;51.992;5.890;2023-07-31T15:47:01;22.60;74.30